sensor_id;sensor_type;location;lat;lon;timestamp;pressure;altitude;pressure_sealevel;temperature;humidity
62420;BME280;48460;51.616;5.426;2023-05-22T00:00:41;101345.59;;;15.98;100.00
62420;BME280;48460;51.616;5.426;2023-05-22T00:03:08;101342.72;;;15.88;100.00
62420;BME280;48460;51.616;5.426;2023-05-22T00:05:34;101346.31;;;15.87;100.00
62420;BME280;48460;51.616;5.426;2023-05-22T00:08:06;101345.53;;;15.85;100.00
62420;BME280;48460;51.616;5.426;2023-05-22T00:10:38;101351.53;;;15.89;100.00
62420;BME280;48460;51.616;5.426;2023-05-22T00:13:04;101340.16;;;15.87;100.00
62420;BME280;48460;51.616;5.426;2023-05-22T00:15:38;101336.75;;;15.85;100.00
62420;BME280;48460;51.616;5.426;2023-05-22T00:18:12;101336.75;;;15.85;100.00
62420;BME280;48460;51.616;5.426;2023-05-22T00:20:43;101336.66;;;15.86;100.00
62420;BME280;48460;51.616;5.426;2023-05-22T00:23:32;101338.13;;;15.78;100.00
62420;BME280;48460;51.616;5.426;2023-05-22T00:26:07;101340.56;;;15.81;100.00
62420;BME280;48460;51.616;5.426;2023-05-22T00:28:35;101332.91;;;15.76;100.00
62420;BME280;48460;51.616;5.426;2023-05-22T00:31:08;101334.41;;;15.80;100.00
62420;BME280;48460;51.616;5.426;2023-05-22T00:33:34;101343.31;;;15.79;100.00
62420;BME280;48460;51.616;5.426;2023-05-22T00:36:12;101336.31;;;15.78;100.00
62420;BME280;48460;51.616;5.426;2023-05-22T00:38:49;101329.31;;;15.77;100.00
62420;BME280;48460;51.616;5.426;2023-05-22T00:41:14;101335.69;;;15.87;100.00
62420;BME280;48460;51.616;5.426;2023-05-22T00:44:01;101332.69;;;15.79;100.00
62420;BME280;48460;51.616;5.426;2023-05-22T00:46:52;101334.41;;;15.80;100.00
62420;BME280;48460;51.616;5.426;2023-05-22T00:52:03;101327.19;;;15.82;100.00
62420;BME280;48460;51.616;5.426;2023-05-22T00:54:34;101321.25;;;15.79;100.00
62420;BME280;48460;51.616;5.426;2023-05-22T00:57:07;101324.00;;;15.77;100.00
62420;BME280;48460;51.616;5.426;2023-05-22T00:59:45;101333.56;;;15.80;100.00
62420;BME280;48460;51.616;5.426;2023-05-22T01:02:16;101326.66;;;15.77;100.00
62420;BME280;48460;51.616;5.426;2023-05-22T01:04:52;101335.06;;;15.84;100.00
62420;BME280;48460;51.616;5.426;2023-05-22T01:13:52;101328.75;;;15.72;100.00
62420;BME280;48460;51.616;5.426;2023-05-22T01:19:51;101319.22;;;15.55;100.00
62420;BME280;48460;51.616;5.426;2023-05-22T01:22:33;101325.75;;;15.49;100.00
62420;BME280;48460;51.616;5.426;2023-05-22T01:31:50;101317.72;;;15.24;100.00
62420;BME280;48460;51.616;5.426;2023-05-22T01:34:30;101322.44;;;15.19;100.00
62420;BME280;48460;51.616;5.426;2023-05-22T01:37:16;101322.25;;;15.22;100.00
62420;BME280;48460;51.616;5.426;2023-05-22T01:40:03;101321.31;;;15.23;100.00
62420;BME280;48460;51.616;5.426;2023-05-22T01:42:51;101314.59;;;15.17;100.00
62420;BME280;48460;51.616;5.426;2023-05-22T01:45:25;101311.66;;;15.08;100.00
62420;BME280;48460;51.616;5.426;2023-05-22T01:48:03;101318.78;;;14.93;100.00
62420;BME280;48460;51.616;5.426;2023-05-22T01:50:52;101312.84;;;14.89;100.00
62420;BME280;48460;51.616;5.426;2023-05-22T01:54:03;101314.91;;;14.84;100.00
62420;BME280;48460;51.616;5.426;2023-05-22T01:56:51;101311.81;;;14.77;100.00
62420;BME280;48460;51.616;5.426;2023-05-22T02:02:53;101313.72;;;14.75;100.00
62420;BME280;48460;51.616;5.426;2023-05-22T02:05:40;101314.94;;;14.70;100.00
62420;BME280;48460;51.616;5.426;2023-05-22T02:08:13;101309.44;;;14.73;100.00
62420;BME280;48460;51.616;5.426;2023-05-22T02:10:58;101314.44;;;14.77;100.00
62420;BME280;48460;51.616;5.426;2023-05-22T02:13:38;101310.94;;;14.77;100.00
62420;BME280;48460;51.616;5.426;2023-05-22T02:16:10;101308.69;;;14.71;100.00
62420;BME280;48460;51.616;5.426;2023-05-22T02:19:01;101299.31;;;14.65;100.00
62420;BME280;48460;51.616;5.426;2023-05-22T02:21:54;101307.47;;;14.62;100.00
62420;BME280;48460;51.616;5.426;2023-05-22T02:25:03;101298.75;;;14.60;100.00
62420;BME280;48460;51.616;5.426;2023-05-22T02:27:38;101306.16;;;14.55;100.00
62420;BME280;48460;51.616;5.426;2023-05-22T02:30:05;101294.38;;;14.45;100.00
62420;BME280;48460;51.616;5.426;2023-05-22T02:32:38;101298.81;;;14.44;100.00
62420;BME280;48460;51.616;5.426;2023-05-22T02:35:07;101297.97;;;14.44;100.00
62420;BME280;48460;51.616;5.426;2023-05-22T02:37:42;101301.06;;;14.36;100.00
62420;BME280;48460;51.616;5.426;2023-05-22T02:40:08;101295.59;;;14.25;100.00
62420;BME280;48460;51.616;5.426;2023-05-22T02:42:42;101290.75;;;14.17;100.00
62420;BME280;48460;51.616;5.426;2023-05-22T02:45:10;101294.06;;;14.21;100.00
62420;BME280;48460;51.616;5.426;2023-05-22T02:47:41;101292.25;;;14.21;100.00
62420;BME280;48460;51.616;5.426;2023-05-22T02:50:19;101285.66;;;14.28;100.00
62420;BME280;48460;51.616;5.426;2023-05-22T02:52:57;101281.88;;;14.32;100.00
62420;BME280;48460;51.616;5.426;2023-05-22T02:55:31;101280.66;;;14.24;100.00
62420;BME280;48460;51.616;5.426;2023-05-22T02:58:05;101283.66;;;14.18;100.00
62420;BME280;48460;51.616;5.426;2023-05-22T03:00:52;101284.69;;;14.15;100.00
62420;BME280;48460;51.616;5.426;2023-05-22T03:03:22;101280.63;;;14.09;100.00
62420;BME280;48460;51.616;5.426;2023-05-22T03:05:49;101281.75;;;14.05;100.00
62420;BME280;48460;51.616;5.426;2023-05-22T03:08:20;101278.25;;;14.05;100.00
62420;BME280;48460;51.616;5.426;2023-05-22T03:10:46;101281.94;;;14.02;100.00
62420;BME280;48460;51.616;5.426;2023-05-22T03:13:17;101275.97;;;13.99;100.00
62420;BME280;48460;51.616;5.426;2023-05-22T03:16:03;101270.94;;;13.94;100.00
62420;BME280;48460;51.616;5.426;2023-05-22T03:18:44;101284.28;;;13.93;100.00
62420;BME280;48460;51.616;5.426;2023-05-22T03:21:20;101278.16;;;13.92;100.00
62420;BME280;48460;51.616;5.426;2023-05-22T03:23:51;101276.41;;;13.91;100.00
62420;BME280;48460;51.616;5.426;2023-05-22T03:26:32;101285.19;;;13.91;100.00
62420;BME280;48460;51.616;5.426;2023-05-22T03:29:16;101278.16;;;13.92;100.00
62420;BME280;48460;51.616;5.426;2023-05-22T03:31:47;101277.56;;;13.87;100.00
62420;BME280;48460;51.616;5.426;2023-05-22T03:34:23;101277.81;;;13.82;100.00
62420;BME280;48460;51.616;5.426;2023-05-22T03:36:51;101273.91;;;13.74;100.00
62420;BME280;48460;51.616;5.426;2023-05-22T03:39:35;101273.41;;;13.67;100.00
62420;BME280;48460;51.616;5.426;2023-05-22T03:42:13;101280.56;;;13.65;100.00
62420;BME280;48460;51.616;5.426;2023-05-22T03:44:44;101279.91;;;13.61;100.00
62420;BME280;48460;51.616;5.426;2023-05-22T03:47:12;101271.56;;;13.53;100.00
62420;BME280;48460;51.616;5.426;2023-05-22T03:49:41;101276.00;;;13.53;100.00
62420;BME280;48460;51.616;5.426;2023-05-22T03:52:23;101266.56;;;13.49;100.00
62420;BME280;48460;51.616;5.426;2023-05-22T03:55:03;101265.09;;;13.59;100.00
62420;BME280;48460;51.616;5.426;2023-05-22T03:57:55;101265.91;;;13.45;100.00
62420;BME280;48460;51.616;5.426;2023-05-22T04:00:26;101273.03;;;13.43;100.00
62420;BME280;48460;51.616;5.426;2023-05-22T04:02:58;101269.38;;;13.45;100.00
62420;BME280;48460;51.616;5.426;2023-05-22T04:05:27;101271.88;;;13.33;100.00
62420;BME280;48460;51.616;5.426;2023-05-22T04:08:15;101272.91;;;13.30;100.00
62420;BME280;48460;51.616;5.426;2023-05-22T04:11:07;101271.34;;;13.26;100.00
62420;BME280;48460;51.616;5.426;2023-05-22T04:13:48;101273.16;;;13.26;100.00
62420;BME280;48460;51.616;5.426;2023-05-22T04:16:33;101271.09;;;13.31;100.00
62420;BME280;48460;51.616;5.426;2023-05-22T04:19:04;101276.28;;;13.32;100.00
62420;BME280;48460;51.616;5.426;2023-05-22T04:21:49;101281.75;;;13.29;100.00
62420;BME280;48460;51.616;5.426;2023-05-22T04:24:22;101284.56;;;13.26;100.00
62420;BME280;48460;51.616;5.426;2023-05-22T04:26:54;101295.25;;;13.23;100.00
62420;BME280;48460;51.616;5.426;2023-05-22T04:29:35;101285.88;;;13.17;100.00
62420;BME280;48460;51.616;5.426;2023-05-22T04:32:18;101288.19;;;13.23;100.00
62420;BME280;48460;51.616;5.426;2023-05-22T04:34:54;101289.00;;;13.26;100.00
62420;BME280;48460;51.616;5.426;2023-05-22T04:37:24;101285.44;;;13.27;100.00
62420;BME280;48460;51.616;5.426;2023-05-22T04:39:55;101290.72;;;13.27;100.00
62420;BME280;48460;51.616;5.426;2023-05-22T04:42:25;101301.84;;;13.32;100.00
62420;BME280;48460;51.616;5.426;2023-05-22T04:48:14;101299.63;;;13.40;100.00
62420;BME280;48460;51.616;5.426;2023-05-22T04:50:51;101300.75;;;13.36;100.00
62420;BME280;48460;51.616;5.426;2023-05-22T04:57:18;101316.28;;;13.42;100.00
62420;BME280;48460;51.616;5.426;2023-05-22T04:59:48;101312.78;;;13.41;100.00
62420;BME280;48460;51.616;5.426;2023-05-22T05:02:32;101311.56;;;13.47;100.00
62420;BME280;48460;51.616;5.426;2023-05-22T05:05:04;101318.88;;;13.58;100.00
62420;BME280;48460;51.616;5.426;2023-05-22T05:07:41;101313.25;;;13.64;100.00
62420;BME280;48460;51.616;5.426;2023-05-22T05:10:12;101315.88;;;13.64;100.00
62420;BME280;48460;51.616;5.426;2023-05-22T05:19:22;101317.22;;;13.87;100.00
62420;BME280;48460;51.616;5.426;2023-05-22T05:21:49;101309.00;;;13.91;100.00
62420;BME280;48460;51.616;5.426;2023-05-22T05:24:16;101317.03;;;13.90;100.00
62420;BME280;48460;51.616;5.426;2023-05-22T05:26:49;101313.44;;;13.91;100.00
62420;BME280;48460;51.616;5.426;2023-05-22T05:29:14;101318.47;;;13.96;100.00
62420;BME280;48460;51.616;5.426;2023-05-22T05:31:40;101311.47;;;13.95;100.00
62420;BME280;48460;51.616;5.426;2023-05-22T05:34:06;101319.50;;;13.93;100.00
62420;BME280;48460;51.616;5.426;2023-05-22T05:36:31;101319.81;;;14.03;100.00
62420;BME280;48460;51.616;5.426;2023-05-22T05:39:00;101328.03;;;13.98;100.00
62420;BME280;48460;51.616;5.426;2023-05-22T05:41:25;101319.31;;;13.96;100.00
62420;BME280;48460;51.616;5.426;2023-05-22T05:44:04;101319.56;;;13.91;100.00
62420;BME280;48460;51.616;5.426;2023-05-22T05:46:32;101323.41;;;14.02;100.00
62420;BME280;48460;51.616;5.426;2023-05-22T05:49:06;101328.59;;;14.03;100.00
62420;BME280;48460;51.616;5.426;2023-05-22T05:51:34;101329.19;;;14.08;100.00
62420;BME280;48460;51.616;5.426;2023-05-22T05:54:01;101326.16;;;14.14;100.00
62420;BME280;48460;51.616;5.426;2023-05-22T05:56:27;101325.03;;;14.19;100.00
62420;BME280;48460;51.616;5.426;2023-05-22T05:58:52;101328.75;;;14.30;100.00
62420;BME280;48460;51.616;5.426;2023-05-22T06:01:18;101330.75;;;14.41;100.00
62420;BME280;48460;51.616;5.426;2023-05-22T06:03:46;101323.78;;;14.54;100.00
62420;BME280;48460;51.616;5.426;2023-05-22T06:06:21;101336.84;;;14.72;100.00
62420;BME280;48460;51.616;5.426;2023-05-22T06:08:50;101335.16;;;14.85;100.00
62420;BME280;48460;51.616;5.426;2023-05-22T06:11:18;101344.81;;;15.00;100.00
62420;BME280;48460;51.616;5.426;2023-05-22T06:13:45;101348.56;;;15.11;100.00
62420;BME280;48460;51.616;5.426;2023-05-22T06:16:11;101351.78;;;15.16;100.00
62420;BME280;48460;51.616;5.426;2023-05-22T06:18:38;101354.03;;;15.22;100.00
62420;BME280;48460;51.616;5.426;2023-05-22T06:21:11;101354.22;;;15.19;100.00
62420;BME280;48460;51.616;5.426;2023-05-22T06:23:36;101351.22;;;15.11;100.00
62420;BME280;48460;51.616;5.426;2023-05-22T06:26:02;101348.56;;;15.11;100.00
62420;BME280;48460;51.616;5.426;2023-05-22T06:28:31;101344.69;;;15.16;100.00
62420;BME280;48460;51.616;5.426;2023-05-22T06:30:57;101350.72;;;15.33;100.00
62420;BME280;48460;51.616;5.426;2023-05-22T06:33:30;101360.34;;;15.48;100.00
62420;BME280;48460;51.616;5.426;2023-05-22T06:35:58;101361.63;;;15.55;100.00
62420;BME280;48460;51.616;5.426;2023-05-22T06:38:26;101363.69;;;15.64;100.00
62420;BME280;48460;51.616;5.426;2023-05-22T06:40:51;101365.16;;;15.56;100.00
62420;BME280;48460;51.616;5.426;2023-05-22T06:43:19;101375.00;;;15.68;100.00
62420;BME280;48460;51.616;5.426;2023-05-22T06:45:47;101380.00;;;15.72;100.00
62420;BME280;48460;51.616;5.426;2023-05-22T06:48:15;101384.59;;;15.83;100.00
62420;BME280;48460;51.616;5.426;2023-05-22T06:50:41;101384.28;;;15.88;100.00
62420;BME280;48460;51.616;5.426;2023-05-22T06:53:06;101382.19;;;15.93;100.00
62420;BME280;48460;51.616;5.426;2023-05-22T06:55:32;101382.53;;;16.01;100.00
62420;BME280;48460;51.616;5.426;2023-05-22T06:57:58;101383.53;;;16.13;100.00
62420;BME280;48460;51.616;5.426;2023-05-22T07:00:23;101383.22;;;16.17;100.00
62420;BME280;48460;51.616;5.426;2023-05-22T07:02:49;101379.41;;;16.22;100.00
62420;BME280;48460;51.616;5.426;2023-05-22T07:05:15;101378.44;;;16.23;100.00
62420;BME280;48460;51.616;5.426;2023-05-22T07:07:40;101382.91;;;16.22;100.00
62420;BME280;48460;51.616;5.426;2023-05-22T07:10:06;101383.34;;;16.29;100.00
62420;BME280;48460;51.616;5.426;2023-05-22T07:12:32;101388.22;;;16.22;100.00
62420;BME280;48460;51.616;5.426;2023-05-22T07:15:00;101391.72;;;16.23;100.00
62420;BME280;48460;51.616;5.426;2023-05-22T07:17:26;101388.09;;;16.24;100.00
62420;BME280;48460;51.616;5.426;2023-05-22T07:19:52;101375.19;;;16.32;100.00
62420;BME280;48460;51.616;5.426;2023-05-22T07:22:17;101383.16;;;16.45;100.00
62420;BME280;48460;51.616;5.426;2023-05-22T07:24:43;101385.16;;;16.41;100.00
62420;BME280;48460;51.616;5.426;2023-05-22T07:27:11;101391.38;;;16.54;100.00
62420;BME280;48460;51.616;5.426;2023-05-22T07:29:40;101381.59;;;16.55;100.00
62420;BME280;48460;51.616;5.426;2023-05-22T07:32:06;101385.09;;;16.55;100.00
62420;BME280;48460;51.616;5.426;2023-05-22T07:34:32;101390.31;;;16.57;100.00
62420;BME280;48460;51.616;5.426;2023-05-22T07:37:06;101391.03;;;16.46;100.00
62420;BME280;48460;51.616;5.426;2023-05-22T07:39:32;101384.66;;;16.49;100.00
62420;BME280;48460;51.616;5.426;2023-05-22T07:41:57;101396.88;;;16.51;100.00
62420;BME280;48460;51.616;5.426;2023-05-22T07:44:23;101399.84;;;16.59;100.00
62420;BME280;48460;51.616;5.426;2023-05-22T07:46:51;101401.97;;;16.67;100.00
62420;BME280;48460;51.616;5.426;2023-05-22T07:49:18;101392.56;;;16.76;100.00
62420;BME280;48460;51.616;5.426;2023-05-22T07:51:46;101400.19;;;16.80;100.00
62420;BME280;48460;51.616;5.426;2023-05-22T07:54:12;101406.59;;;16.91;100.00
62420;BME280;48460;51.616;5.426;2023-05-22T07:56:43;101396.81;;;16.78;100.00
62420;BME280;48460;51.616;5.426;2023-05-22T07:59:10;101400.19;;;16.80;100.00
62420;BME280;48460;51.616;5.426;2023-05-22T08:01:37;101401.78;;;16.83;100.00
62420;BME280;48460;51.616;5.426;2023-05-22T08:04:03;101410.28;;;17.01;100.00
62420;BME280;48460;51.616;5.426;2023-05-22T08:06:29;101403.81;;;17.18;100.00
62420;BME280;48460;51.616;5.426;2023-05-22T08:08:55;101401.63;;;17.36;100.00
62420;BME280;48460;51.616;5.426;2023-05-22T08:11:24;101405.09;;;17.62;100.00
62420;BME280;48460;51.616;5.426;2023-05-22T08:13:50;101412.72;;;17.79;100.00
62420;BME280;48460;51.616;5.426;2023-05-22T08:16:15;101415.09;;;17.95;100.00
62420;BME280;48460;51.616;5.426;2023-05-22T08:18:46;101407.03;;;18.08;100.00
62420;BME280;48460;51.616;5.426;2023-05-22T08:21:12;101406.00;;;18.21;100.00
62420;BME280;48460;51.616;5.426;2023-05-22T08:23:37;101402.66;;;18.31;100.00
62420;BME280;48460;51.616;5.426;2023-05-22T08:26:04;101399.41;;;18.03;100.00
62420;BME280;48460;51.616;5.426;2023-05-22T08:28:30;101400.88;;;18.07;100.00
62420;BME280;48460;51.616;5.426;2023-05-22T08:30:55;101401.81;;;18.30;100.00
62420;BME280;48460;51.616;5.426;2023-05-22T08:33:21;101396.69;;;18.62;100.00
62420;BME280;48460;51.616;5.426;2023-05-22T08:35:46;101403.78;;;18.75;100.00
62420;BME280;48460;51.616;5.426;2023-05-22T08:38:12;101396.94;;;18.59;100.00
62420;BME280;48460;51.616;5.426;2023-05-22T08:40:37;101396.03;;;18.83;100.00
62420;BME280;48460;51.616;5.426;2023-05-22T08:43:04;101401.84;;;18.99;100.00
62420;BME280;48460;51.616;5.426;2023-05-22T08:45:31;101410.19;;;19.06;100.00
62420;BME280;48460;51.616;5.426;2023-05-22T08:48:04;101406.91;;;18.91;100.00
62420;BME280;48460;51.616;5.426;2023-05-22T08:50:30;101400.66;;;18.92;100.00
62420;BME280;48460;51.616;5.426;2023-05-22T08:52:59;101406.31;;;19.32;100.00
62420;BME280;48460;51.616;5.426;2023-05-22T08:55:27;101402.53;;;19.69;100.00
62420;BME280;48460;51.616;5.426;2023-05-22T08:57:55;101407.50;;;20.17;100.00
62420;BME280;48460;51.616;5.426;2023-05-22T09:00:26;101411.44;;;20.55;99.35
62420;BME280;48460;51.616;5.426;2023-05-22T09:02:53;101404.78;;;20.70;95.14
62420;BME280;48460;51.616;5.426;2023-05-22T09:05:20;101401.72;;;20.75;95.91
62420;BME280;48460;51.616;5.426;2023-05-22T09:07:45;101401.41;;;20.99;94.83
62420;BME280;48460;51.616;5.426;2023-05-22T09:10:15;101397.72;;;20.90;94.43
62420;BME280;48460;51.616;5.426;2023-05-22T09:13:05;101395.06;;;21.00;96.35
62420;BME280;48460;51.616;5.426;2023-05-22T09:15:32;101397.97;;;21.17;93.65
62420;BME280;48460;51.616;5.426;2023-05-22T09:18:04;101404.72;;;21.43;94.38
62420;BME280;48460;51.616;5.426;2023-05-22T09:20:39;101400.97;;;21.74;92.05
62420;BME280;48460;51.616;5.426;2023-05-22T09:23:15;101402.16;;;22.20;88.35
62420;BME280;48460;51.616;5.426;2023-05-22T09:25:44;101406.53;;;22.31;87.32
62420;BME280;48460;51.616;5.426;2023-05-22T09:28:10;101403.38;;;22.65;85.19
62420;BME280;48460;51.616;5.426;2023-05-22T09:30:36;101397.44;;;22.51;82.89
62420;BME280;48460;51.616;5.426;2023-05-22T09:33:03;101397.16;;;22.64;85.33
62420;BME280;48460;51.616;5.426;2023-05-22T09:35:41;101396.22;;;22.93;84.72
62420;BME280;48460;51.616;5.426;2023-05-22T09:38:17;101393.69;;;23.01;82.03
62420;BME280;48460;51.616;5.426;2023-05-22T09:41:08;101389.22;;;22.82;82.36
62420;BME280;48460;51.616;5.426;2023-05-22T09:43:33;101393.19;;;23.15;82.03
62420;BME280;48460;51.616;5.426;2023-05-22T09:46:04;101390.28;;;23.82;80.03
62420;BME280;48460;51.616;5.426;2023-05-22T09:48:33;101387.34;;;24.29;76.51
62420;BME280;48460;51.616;5.426;2023-05-22T09:51:01;101388.75;;;23.97;76.08
62420;BME280;48460;51.616;5.426;2023-05-22T09:53:28;101389.22;;;24.10;76.31
62420;BME280;48460;51.616;5.426;2023-05-22T09:55:58;101384.38;;;23.96;76.46
62420;BME280;48460;51.616;5.426;2023-05-22T09:58:29;101378.34;;;23.66;77.28
62420;BME280;48460;51.616;5.426;2023-05-22T10:00:56;101379.72;;;23.98;78.94
62420;BME280;48460;51.616;5.426;2023-05-22T10:03:28;101381.25;;;24.01;76.44
62420;BME280;48460;51.616;5.426;2023-05-22T10:05:59;101388.28;;;24.20;76.23
62420;BME280;48460;51.616;5.426;2023-05-22T10:08:37;101383.44;;;24.23;75.48
62420;BME280;48460;51.616;5.426;2023-05-22T10:11:07;101380.31;;;24.36;76.42
62420;BME280;48460;51.616;5.426;2023-05-22T10:13:34;101391.56;;;24.49;74.96
62420;BME280;48460;51.616;5.426;2023-05-22T10:16:05;101387.72;;;24.78;74.63
62420;BME280;48460;51.616;5.426;2023-05-22T10:18:32;101376.03;;;24.95;71.55
62420;BME280;48460;51.616;5.426;2023-05-22T10:20:58;101379.00;;;24.84;71.18
62420;BME280;48460;51.616;5.426;2023-05-22T10:23:25;101376.88;;;25.30;70.24
62420;BME280;48460;51.616;5.426;2023-05-22T10:25:55;101374.91;;;25.40;68.48
62420;BME280;48460;51.616;5.426;2023-05-22T10:28:26;101381.16;;;25.57;68.03
62420;BME280;48460;51.616;5.426;2023-05-22T10:31:00;101379.25;;;26.25;67.05
62420;BME280;48460;51.616;5.426;2023-05-22T10:33:48;101377.84;;;26.78;65.46
62420;BME280;48460;51.616;5.426;2023-05-22T10:36:50;101377.03;;;27.25;63.59
62420;BME280;48460;51.616;5.426;2023-05-22T10:39:36;101378.41;;;27.75;60.18
62420;BME280;48460;51.616;5.426;2023-05-22T10:42:11;101380.84;;;26.91;59.94
62420;BME280;48460;51.616;5.426;2023-05-22T10:44:37;101372.91;;;26.90;61.19
62420;BME280;48460;51.616;5.426;2023-05-22T10:47:12;101377.66;;;26.79;62.21
62420;BME280;48460;51.616;5.426;2023-05-22T10:49:42;101373.28;;;27.34;59.76
62420;BME280;48460;51.616;5.426;2023-05-22T10:52:14;101364.97;;;27.90;59.53
62420;BME280;48460;51.616;5.426;2023-05-22T10:54:43;101367.16;;;27.94;59.76
62420;BME280;48460;51.616;5.426;2023-05-22T10:57:13;101363.84;;;28.07;58.27
62420;BME280;48460;51.616;5.426;2023-05-22T10:59:38;101365.19;;;28.64;56.61
62420;BME280;48460;51.616;5.426;2023-05-22T11:02:23;101367.03;;;28.93;55.47
62420;BME280;48460;51.616;5.426;2023-05-22T11:05:31;101372.34;;;28.42;54.69
62420;BME280;48460;51.616;5.426;2023-05-22T11:10:54;101373.91;;;28.13;57.91
62420;BME280;48460;51.616;5.426;2023-05-22T11:13:26;101366.75;;;28.44;55.29
62420;BME280;48460;51.616;5.426;2023-05-22T11:16:11;101362.97;;;28.97;53.62
62420;BME280;48460;51.616;5.426;2023-05-22T11:18:42;101368.53;;;29.25;53.63
62420;BME280;48460;51.616;5.426;2023-05-22T11:21:15;101357.56;;;28.82;53.26
62420;BME280;48460;51.616;5.426;2023-05-22T11:23:45;101356.69;;;29.12;52.77
62420;BME280;48460;51.616;5.426;2023-05-22T11:26:18;101354.16;;;28.95;52.99
62420;BME280;48460;51.616;5.426;2023-05-22T11:29:16;101365.38;;;28.77;54.77
62420;BME280;48460;51.616;5.426;2023-05-22T11:31:45;101360.31;;;28.45;53.39
62420;BME280;48460;51.616;5.426;2023-05-22T11:34:13;101361.34;;;29.18;53.41
62420;BME280;48460;51.616;5.426;2023-05-22T11:36:40;101358.72;;;29.61;50.55
62420;BME280;48460;51.616;5.426;2023-05-22T11:39:14;101356.22;;;29.23;52.53
62420;BME280;48460;51.616;5.426;2023-05-22T11:41:40;101353.53;;;29.08;51.15
62420;BME280;48460;51.616;5.426;2023-05-22T11:44:09;101356.44;;;28.77;52.65
62420;BME280;48460;51.616;5.426;2023-05-22T11:46:37;101356.69;;;28.97;52.13
62420;BME280;48460;51.616;5.426;2023-05-22T11:49:08;101350.69;;;29.31;52.34
62420;BME280;48460;51.616;5.426;2023-05-22T11:51:40;101353.84;;;29.71;50.92
62420;BME280;48460;51.616;5.426;2023-05-22T11:54:06;101355.66;;;30.28;48.33
62420;BME280;48460;51.616;5.426;2023-05-22T11:56:42;101348.50;;;29.99;49.26
62420;BME280;48460;51.616;5.426;2023-05-22T11:59:36;101349.59;;;29.62;50.35
62420;BME280;48460;51.616;5.426;2023-05-22T12:02:03;101346.88;;;29.62;50.15
62420;BME280;48460;51.616;5.426;2023-05-22T12:04:31;101344.84;;;29.49;52.10
62420;BME280;48460;51.616;5.426;2023-05-22T12:06:57;101347.16;;;29.52;50.56
62420;BME280;48460;51.616;5.426;2023-05-22T12:09:30;101341.81;;;29.22;50.83
62420;BME280;48460;51.616;5.426;2023-05-22T12:11:59;101345.47;;;29.15;50.94
62420;BME280;48460;51.616;5.426;2023-05-22T12:14:29;101343.91;;;29.05;51.84
62420;BME280;48460;51.616;5.426;2023-05-22T12:17:00;101356.69;;;28.52;52.14
62420;BME280;48460;51.616;5.426;2023-05-22T12:19:39;101341.84;;;28.78;52.38
62420;BME280;48460;51.616;5.426;2023-05-22T12:22:10;101339.97;;;28.93;51.78
62420;BME280;48460;51.616;5.426;2023-05-22T12:24:43;101350.59;;;29.61;50.70
62420;BME280;48460;51.616;5.426;2023-05-22T12:27:13;101346.31;;;29.51;50.23
62420;BME280;48460;51.616;5.426;2023-05-22T12:29:41;101348.41;;;29.71;50.00
62420;BME280;48460;51.616;5.426;2023-05-22T12:32:10;101353.56;;;30.09;48.58
62420;BME280;48460;51.616;5.426;2023-05-22T12:34:43;101343.06;;;29.99;49.28
62420;BME280;48460;51.616;5.426;2023-05-22T12:40:24;101341.66;;;29.82;48.27
62420;BME280;48460;51.616;5.426;2023-05-22T12:43:02;101324.66;;;29.15;49.36
62420;BME280;48460;51.616;5.426;2023-05-22T12:45:31;101325.28;;;29.17;50.84
62420;BME280;48460;51.616;5.426;2023-05-22T12:48:24;101330.09;;;29.15;51.60
62420;BME280;48460;51.616;5.426;2023-05-22T12:57:42;101337.59;;;29.56;50.08
62420;BME280;48460;51.616;5.426;2023-05-22T13:00:48;101325.16;;;28.74;52.38
62420;BME280;48460;51.616;5.426;2023-05-22T13:18:35;101322.75;;;28.65;53.86
62420;BME280;48460;51.616;5.426;2023-05-22T13:21:42;101320.47;;;29.13;53.52
62420;BME280;48460;51.616;5.426;2023-05-22T13:24:10;101317.31;;;28.50;54.42
62420;BME280;48460;51.616;5.426;2023-05-22T13:27:04;101331.88;;;28.26;54.87
62420;BME280;48460;51.616;5.426;2023-05-22T13:29:35;101325.59;;;28.10;54.85
62420;BME280;48460;51.616;5.426;2023-05-22T13:32:16;101326.88;;;27.54;56.28
62420;BME280;48460;51.616;5.426;2023-05-22T13:34:47;101323.22;;;28.30;56.50
62420;BME280;48460;51.616;5.426;2023-05-22T13:37:37;101325.16;;;27.84;56.99
62420;BME280;48460;51.616;5.426;2023-05-22T13:40:11;101329.66;;;27.91;58.17
62420;BME280;48460;51.616;5.426;2023-05-22T13:42:57;101329.84;;;27.90;56.00
62420;BME280;48460;51.616;5.426;2023-05-22T13:45:37;101330.97;;;27.49;57.20
62420;BME280;48460;51.616;5.426;2023-05-22T13:48:05;101325.91;;;27.15;59.23
62420;BME280;48460;51.616;5.426;2023-05-22T13:50:34;101324.53;;;26.80;57.88
62420;BME280;48460;51.616;5.426;2023-05-22T13:53:01;101318.56;;;27.01;58.44
62420;BME280;48460;51.616;5.426;2023-05-22T13:58:49;101318.63;;;28.54;53.83
62420;BME280;48460;51.616;5.426;2023-05-22T14:01:14;101323.81;;;28.55;55.37
62420;BME280;48460;51.616;5.426;2023-05-22T14:03:41;101317.19;;;28.43;52.87
62420;BME280;48460;51.616;5.426;2023-05-22T14:06:13;101323.13;;;28.24;54.53
62420;BME280;48460;51.616;5.426;2023-05-22T14:08:41;101324.72;;;27.95;55.22
62420;BME280;48460;51.616;5.426;2023-05-22T14:11:07;101326.72;;;27.55;55.72
62420;BME280;48460;51.616;5.426;2023-05-22T14:13:38;101324.59;;;27.65;57.04
62420;BME280;48460;51.616;5.426;2023-05-22T14:16:07;101330.53;;;27.38;57.34
62420;BME280;48460;51.616;5.426;2023-05-22T14:18:44;101333.84;;;27.09;58.15